• Join FlightAware (Why Join?)
  • Login
  • US Flag 
09:06PM EDT


 

Airport Tracker/Info


-or-


 

Live Flight TrackerFlight Track Log ✈ DAL2030 ✈ 24-Apr-2013 ✈ KDTW - KMEM

Flight Track Log - Related Links

Times and Time Zones

All times are in EDT time to prevent confusion due to time zone crossing. See the DAL2030 flight status page for this flight to view local times or setup timezone preferences in your user account.

Time Position Orientation Groundspeed Altitude Reporting Facility
EDT Latitude Longitude Course Direction KTS MPH feet Rate Location/Type
03:58PM 42.2292 -83.3342 194° South 160 184 1,400  Level Cleveland Center
03:59PM 42.2575 -83.2878 50° Northeast 237 273 2,700 2,580 Climbing Cleveland Center
04:00PM 42.2967 -83.2164 53° Northeast 258 297 5,900 2,880 Climbing Cleveland Center
04:01PM 41.9783 -83.5986 197° South  Level Estimated
04:01PM 42.3053 -83.1128 84° East 300 345 8,600  Level Cleveland Center
04:02PM 41.9002 -83.6799 194° South  Level Estimated
04:02PM 42.2486 -83.0319 133° Southeast 306 352 10,300  Level Cleveland Center
04:03PM 41.8220 -83.7610 194° South  Level Estimated
04:03PM 42.1694 -83.0344 181° South 313 360 12,800  Level Cleveland Center
04:04PM 41.7438 -83.8419 194° South  Level Estimated
04:04PM 42.1094 -83.0994 219° Southwest 291 335 13,200  Level Cleveland Center
04:06PM 42.0051 -83.2150 219° Southwest  Level Estimated
04:06PM 41.9833 -83.2397 219° Southwest 286 329 15,700  Level Cleveland Center
04:07PM 41.9214 -83.3097 220° Southwest 286 329 18,200 2,220 Climbing Cleveland Center
04:08PM 41.8550 -83.3794 218° Southwest 297 342 20,200 2,460 Climbing Cleveland Center
04:09PM 41.7928 -83.4492 220° Southwest 297 342 23,200 2,400 Climbing Cleveland Center
04:10PM 41.7306 -83.5186 220° Southwest 297 342 25,100 1,680 Climbing Cleveland Center
04:11PM 41.6622 -83.5794 214° Southwest 297 342 26,600 1,020 Climbing Cleveland Center
04:12PM 41.5742 -83.6031 191° South 300 345 27,200 660 Climbing Cleveland Center
04:13PM 41.4794 -83.6319 193° South 330 380 28,000 960 Climbing Cleveland Center
04:14PM 41.3883 -83.6831 203° Southwest 349 402 29,200 1,380 Climbing Cleveland Center
04:15PM 41.3033 -83.7453 209° Southwest 349 402 30,800 1,020 Climbing Cleveland Center
04:17PM 41.1394 -83.8625 208° Southwest 348 400 32,500 720 Climbing Indianapolis Center
04:18PM 41.0444 -83.9300 208° Southwest 354 407 33,200 720 Climbing Indianapolis Center
04:19PM 40.9572 -83.9922 208° Southwest 354 407 34,000 360 Climbing Indianapolis Center
04:20PM 40.8706 -84.0544 209° Southwest 352 405 34,000  Level Indianapolis Center
04:21PM 40.7700 -84.1258 208° Southwest 351 404 34,000  Level Indianapolis Center
04:22PM 40.6842 -84.1881 209° Southwest 350 403 34,000  Level Indianapolis Center
04:23PM 40.5972 -84.2475 207° Southwest 349 402 34,000  Level Indianapolis Center
04:24PM 40.5106 -84.3106 209° Southwest 353 406 34,000  Level Indianapolis Center
04:26PM 40.4247 -84.3711 208° Southwest 349 402 34,000  Level Indianapolis Center
04:27PM 40.3389 -84.4319 208° Southwest 349 402 34,000  Level Indianapolis Center
04:28PM 40.2394 -84.5019 208° Southwest 347 399 34,000  Level Indianapolis Center
04:29PM 40.1525 -84.5631 208° Southwest 349 402 34,000  Level Indianapolis Center
04:30PM 40.0661 -84.6228 208° Southwest 349 402 34,000  Level Indianapolis Center
04:31PM 39.9789 -84.6833 208° Southwest 351 404 34,000  Level Indianapolis Center
04:32PM 39.8922 -84.7431 208° Southwest 350 403 34,000  Level Indianapolis Center
04:33PM 39.8058 -84.8028 208° Southwest 349 402 34,000  Level Indianapolis Center
04:34PM 39.7247 -84.8683 212° Southwest 345 397 34,000  Level Indianapolis Center
04:35PM 39.6464 -84.9608 222° Southwest 340 391 34,000  Level Indianapolis Center
04:36PM 39.5747 -85.0425 221° Southwest 341 392 34,000  Level Indianapolis Center
04:37PM 39.5011 -85.1239 220° Southwest 344 396 34,000  Level Indianapolis Center
04:38PM 39.4264 -85.2064 220° Southwest 349 402 34,000  Level Indianapolis Center
04:39PM 39.3408 -85.3017 221° Southwest 347 399 34,000  Level Indianapolis Center
04:40PM 39.2672 -85.3850 221° Southwest 351 404 34,000  Level Indianapolis Center
04:41PM 39.1939 -85.4661 221° Southwest 345 397 34,000  Level Indianapolis Center
04:42PM 39.1214 -85.5461 221° Southwest 342 394 34,000  Level Indianapolis Center
04:43PM 39.0500 -85.6261 221° Southwest 339 390 34,000  Level Indianapolis Center
04:44PM 38.9789 -85.7042 220° Southwest 335 386 34,000  Level Indianapolis Center
04:45PM 38.9075 -85.7825 221° Southwest 335 386 34,000  Level Indianapolis Center
04:46PM 38.8244 -85.8731 220° Southwest 334 384 34,000  Level Indianapolis Center
04:47PM 38.7533 -85.9519 221° Southwest 332 382 34,000  Level Indianapolis Center
04:48PM 38.6825 -86.0294 221° Southwest 333 383 34,000  Level Indianapolis Center
04:49PM 38.6122 -86.1050 220° Southwest 328 377 34,000  Level Indianapolis Center
04:50PM 38.5422 -86.1811 220° Southwest 329 379 34,000  Level Indianapolis Center
04:51PM 38.4703 -86.2586 220° Southwest 334 384 34,000  Level Indianapolis Center
04:52PM 38.3975 -86.3369 220° Southwest 339 390 34,000  Level Indianapolis Center
04:53PM 38.3250 -86.4147 220° Southwest 337 388 34,000  Level Indianapolis Center
04:54PM 38.2531 -86.4925 220° Southwest 337 388 34,000  Level Indianapolis Center
04:55PM 38.1800 -86.5717 220° Southwest 339 390 34,000  Level Indianapolis Center
04:57PM 38.0919 -86.6653 220° Southwest 340 391 34,000  Level Indianapolis Center
04:58PM 38.0181 -86.7453 220° Southwest 344 396 34,000  Level Indianapolis Center
04:59PM 37.9419 -86.8242 219° Southwest 348 400 34,000  Level Indianapolis Center
05:00PM 37.8667 -86.9044 220° Southwest 350 403 34,000  Level Indianapolis Center
05:01PM 37.7906 -86.9844 220° Southwest 352 405 34,000  Level Indianapolis Center
05:02PM 37.7144 -87.0642 220° Southwest 353 406 34,000  Level Indianapolis Center
05:03PM 37.6375 -87.1453 220° Southwest 356 410 34,000  Level Indianapolis Center
05:03PM 37.6097 -87.1764 222° Southwest 353 406 34,000  Level Memphis Center
05:04PM 37.5347 -87.2581 221° Southwest 358 412 34,000  Level Memphis Center
05:05PM 37.4575 -87.3367 219° Southwest 358 412 34,000  Level Memphis Center
05:06PM 37.3783 -87.4156 218° Southwest 363 418 34,000  Level Memphis Center
05:07PM 37.3008 -87.4967 220° Southwest 363 418 34,000  Level Memphis Center
05:08PM 37.2236 -87.5750 219° Southwest 363 418 34,000  Level Memphis Center
05:09PM 37.1464 -87.6583 221° Southwest 363 418 34,000  Level Memphis Center
05:10PM 37.0667 -87.7389 219° Southwest 369 425 34,000  Level Memphis Center
05:11PM 36.9811 -87.8250 219° Southwest 369 425 34,000  Level Memphis Center
05:12PM 36.9014 -87.9053 219° Southwest 369 425 34,000  Level Memphis Center
05:13PM 36.8236 -87.9853 219° Southwest 369 425 34,000  Level Memphis Center
05:14PM 36.7439 -88.0681 220° Southwest 374 430 34,000 -600 Level Memphis Center
05:15PM 36.6683 -88.1453 219° Southwest 369 425 32,800 -1,680 Descending Memphis Center
05:16PM 36.5883 -88.2275 220° Southwest 369 425 30,700 -2,100 Descending Memphis Center
05:17PM 36.5022 -88.3097 218° Southwest 380 437 28,700 -2,040 Descending Memphis Center
05:18PM 36.4181 -88.3919 218° Southwest 387 445 26,700 -1,800 Descending Memphis Center
05:19PM 36.3361 -88.4736 219° Southwest 387 445 25,200 -1,500 Descending Memphis Center
05:20PM 36.2539 -88.5581 220° Southwest 387 445 23,700 -1,140 Descending Memphis Center
05:21PM 36.1717 -88.6369 218° Southwest 387 445 23,000 -360 Descending Memphis Center
05:22PM 36.0894 -88.7183 219° Southwest 387 445 23,000 -300 Level Memphis Center
05:23PM 36.0092 -88.7969 218° Southwest 387 445 22,500 -1,200 Descending Memphis Center
05:24PM 35.9350 -88.8700 219° Southwest 373 429 20,600 -1,800 Descending Memphis Center
05:25PM 35.8669 -88.9353 218° Southwest 362 417 19,000 -1,380 Descending Memphis Center
05:26PM 35.7925 -89.0083 219° Southwest 351 404 17,900 -900 Descending Memphis Center
05:27PM 35.7203 -89.0811 219° Southwest 346 398 17,300 -840 Descending Memphis Center
05:28PM 35.6606 -89.1611 227° Southwest 323 372 16,300 -960 Descending Memphis Center
05:29PM 35.5989 -89.2439 228° Southwest 323 372 15,400 -840 Descending Memphis Center
05:30PM 35.5369 -89.3211 225° Southwest 318 366 14,700 -660 Descending Memphis Center
05:31PM 35.4731 -89.4036 226° Southwest 323 372 14,100 -720 Descending Memphis Center
05:32PM 35.4089 -89.4883 227° Southwest 323 372 13,300 -960 Descending Memphis Center
05:33PM 35.3531 -89.5578 225° Southwest 303 349 12,200 -1,500 Descending Memphis Center
05:34PM 35.3056 -89.6217 228° Southwest 275 316 10,300 -1,620 Descending Memphis Center
05:35PM 35.2536 -89.6858 225° Southwest 270 311 9,000 -660 Descending Memphis Center
05:36PM 35.2081 -89.7419 225° Southwest 258 297 9,000  Level Memphis Center
05:37PM 35.1647 -89.7983 227° Southwest 234 269 9,000 -360 Level Memphis Center
05:38PM 35.1211 -89.8519 225° Southwest 228 262 8,300 -720 Descending Memphis Center
05:39PM 35.0606 -89.8700 194° South 228 262 7,600 -1,380 Descending Memphis Center
05:40PM 34.9917 -89.8678 178° South 234 269 5,600 -1,740 Descending Memphis Center
05:41PM 34.9250 -89.8683 180° South 240 276 4,200 -1,560 Descending Memphis Center
05:42PM 34.8625 -89.8839 192° South 235 270 2,500 -1,740 Descending Memphis Center